Coronel Enrique Soto Cano Air Base
MHSC : now visible

Airfield :











YOU CAN JOIN US ON...

 
LOGIN :

Register | Disclaimer

   EN    FR    IT 

 









Legend :    VFR   Marginal VFR   IFR   Intensive IFR   Very Intensive IFR
Visi :
Ceiling :
>= 8 km
>= 3000ft
5 to 8 km
1000 to 3000 ft
1500m to 5 km
500 to 1000 ft
800 to 1500m
200 to 500 ft
< 800m
< 200 ft
Symbols :   Thunderstorms  Fog  Heavy snow  Heavy precipitations  Wind > 20 kt







- Airport Elevation : 2061 ft
- IATA code : XPL


MHSC - Coronel Enrique Soto Cano Air Base

CURRENT METAR :
  • 202058Z AUTO 34017G27KT 9999 CLR 32/13 A2993 RMK AO2 PK WND 35027/49 SLP093 T03200132 $

EXPIRED METARs :
  • 202001Z AUTO 33016G25KT 9999 CLR 32/12 A2995 RMK AO2 WSHFT 1957 SLP100 $
  • 201858Z AUTO 35018G21KT 9999 SCT190 33/12 M RMK AO2 SLPNO T03250121 $
  • 201848Z AUTO 36018G24KT 9999 FEW170 SCT190 32/12 M RMK AO2 WSHFT 45 SLPNO $

TAF AMD TAF MHSC
Valid from the 20 at 14:00 until the 21 at 19:00 UTC


201445Z 2014/2119 35012G18KT 9999 SCT030 SCT060 QNH2993INS
TEMPO 2019/2102 36015G25KT
BECMG 2101/2102 34012KT 9999 SCT040 QNH2998INS
BECMG 2104/2105 32009KT 9999 SCT030 BKN060 QNH3006INS
BECMG 2117/2118 01010G15KT 9999 SCT040 BKN070 QNH3000INS TX33/2020Z TN19/2113Z
MHTG FIR / North America



MET'MAP, your aeronautical weather chart ! - Copyright ORBIFLY December 2007 - Disclaimer

ORBIFLY MET'MAP TEAM :

Programming & Development : Alexandra Zaïnal
Concept & Development : Baudouin d'Aumeries
Co-Development & Prog : Marc-Olivier Méhu
Technical & hardware support : Manuel Goepfert

Contact : metmap@orbifly.com




SOURCES & CREDITS :

   NOAA       Earth
Advisory